createdAt,value
2018-08-06T00:01:14.439Z,52.25
2018-08-06T00:03:26.687Z,56.30
2018-08-06T00:05:38.993Z,56.65
2018-08-06T00:07:51.300Z,58.15
2018-08-06T00:10:05.867Z,59.03
2018-08-06T00:12:18.179Z,59.00
2018-08-06T00:14:30.397Z,57.87
2018-08-06T00:16:42.627Z,58.27
2018-08-06T00:18:54.867Z,57.93
2018-08-06T00:21:07.097Z,57.32
2018-08-06T00:23:19.362Z,57.32
2018-08-06T00:25:31.614Z,57.81
2018-08-06T00:27:44.509Z,57.24
2018-08-06T00:29:56.747Z,56.96
2018-08-06T00:32:08.983Z,57.29
2018-08-06T00:34:21.213Z,57.27
2018-08-06T00:36:33.453Z,57.76
2018-08-06T00:38:45.638Z,57.93
2018-08-06T00:40:57.910Z,58.37
2018-08-06T00:43:10.120Z,57.52
2018-08-06T00:45:22.433Z,57.64
2018-08-06T00:47:34.617Z,57.81
2018-08-06T00:49:46.817Z,58.01
2018-08-06T00:51:59.071Z,59.03
2018-08-06T00:54:11.274Z,59.03
2018-08-06T00:56:23.523Z,59.85
2018-08-06T00:58:35.734Z,60.44
2018-08-06T01:00:48.017Z,60.41
2018-08-06T01:03:00.311Z,60.23
2018-08-06T01:05:13.442Z,59.71
2018-08-06T01:07:25.720Z,59.95
2018-08-06T01:09:37.959Z,60.23
2018-08-06T01:11:50.219Z,60.26
2018-08-06T01:14:02.531Z,59.81
2018-08-06T01:16:14.773Z,60.44
2018-08-06T01:18:27.048Z,59.82
2018-08-06T01:20:39.257Z,60.39
2018-08-06T01:22:51.614Z,60.70
2018-08-06T01:25:04.056Z,60.60
2018-08-06T01:27:16.352Z,60.41
2018-08-06T01:29:28.626Z,60.86
2018-08-06T01:31:40.875Z,60.75
2018-08-06T01:33:53.570Z,60.85
2018-08-06T01:36:05.854Z,61.59
2018-08-06T01:38:18.078Z,61.43
2018-08-06T01:40:30.270Z,60.91
2018-08-06T01:42:42.655Z,61.60
2018-08-06T01:44:54.925Z,60.73
2018-08-06T01:47:07.207Z,60.42
2018-08-06T01:49:19.414Z,60.43
2018-08-06T01:51:31.939Z,60.88
2018-08-06T01:53:44.236Z,60.09
2018-08-06T01:55:56.421Z,60.27
2018-08-06T01:58:08.692Z,61.27
2018-08-06T02:00:21.020Z,60.42
2018-08-06T02:02:33.271Z,61.75
2018-08-06T02:04:45.516Z,61.68
2018-08-06T02:06:57.728Z,62.23
2018-08-06T02:09:09.953Z,61.79
2018-08-06T02:11:22.207Z,62.43
2018-08-06T02:13:34.434Z,62.27
2018-08-06T02:15:46.691Z,62.50
2018-08-06T02:17:58.933Z,63.18
2018-08-06T02:20:14.843Z,63.31
2018-08-06T02:22:27.042Z,63.51
2018-08-06T02:24:39.405Z,63.16
2018-08-06T02:26:51.724Z,62.76
2018-08-06T02:29:04.022Z,63.89
2018-08-06T02:31:16.235Z,63.97
2018-08-06T02:33:28.435Z,64.00
2018-08-06T02:35:40.686Z,63.53
2018-08-06T02:37:52.948Z,64.93
2018-08-06T02:40:06.529Z,65.19
2018-08-06T02:42:18.783Z,65.31
2018-08-06T02:44:31.055Z,64.52
2018-08-06T02:46:43.325Z,64.43
2018-08-06T02:48:55.543Z,64.95
2018-08-06T02:51:07.830Z,64.74
2018-08-06T02:53:20.069Z,64.09
2018-08-06T02:55:32.344Z,64.00
2018-08-06T02:57:44.579Z,64.53
2018-08-06T02:59:56.831Z,63.31
2018-08-06T03:02:09.163Z,64.00
2018-08-06T03:04:21.379Z,64.08
2018-08-06T03:06:33.658Z,63.51
2018-08-06T03:08:45.895Z,64.02
2018-08-06T03:10:58.116Z,64.40
2018-08-06T03:13:10.358Z,64.40
2018-08-06T03:15:22.578Z,64.59
2018-08-06T03:17:35.024Z,64.15
2018-08-06T03:19:47.270Z,62.77
2018-08-06T03:21:59.502Z,63.44
2018-08-06T03:24:11.790Z,63.97
2018-08-06T03:26:24.054Z,64.02
2018-08-06T03:28:36.458Z,64.64
2018-08-06T03:30:48.667Z,64.17
2018-08-06T03:33:00.924Z,65.31
2018-08-06T03:35:13.332Z,64.51
2018-08-06T03:37:25.545Z,65.41
2018-08-06T03:39:37.786Z,65.82
2018-08-06T03:41:50.012Z,65.61
2018-08-06T03:44:02.268Z,65.36
2018-08-06T03:46:14.486Z,66.00
2018-08-06T03:48:26.764Z,65.41
2018-08-06T03:50:38.984Z,65.48
2018-08-06T03:52:51.273Z,66.27
2018-08-06T03:55:04.560Z,65.45
2018-08-06T03:57:16.772Z,66.58
2018-08-06T03:59:28.990Z,66.11
2018-08-06T04:01:41.229Z,67.08
2018-08-06T04:03:53.754Z,66.48
2018-08-06T04:06:06.259Z,66.71
2018-08-06T04:08:18.521Z,66.23
2018-08-06T04:10:30.771Z,67.13
2018-08-06T04:12:43.034Z,66.59
2018-08-06T04:14:55.338Z,67.52
2018-08-06T04:17:07.587Z,67.54
2018-08-06T04:19:19.800Z,67.39
2018-08-06T04:21:32.079Z,67.44
2018-08-06T04:23:44.311Z,67.89
2018-08-06T04:25:56.518Z,67.66
2018-08-06T04:28:08.774Z,67.80
2018-08-06T04:30:20.997Z,68.00
2018-08-06T04:32:33.196Z,67.08
2018-08-06T04:34:46.407Z,66.73
2018-08-06T04:36:58.649Z,66.65
2018-08-06T04:39:10.843Z,67.35
2018-08-06T04:41:23.090Z,66.63
2018-08-06T04:43:35.291Z,66.33
2018-08-06T04:45:47.516Z,66.67
2018-08-06T04:47:59.764Z,67.42
2018-08-06T04:50:13.352Z,66.35
2018-08-06T04:52:25.538Z,66.25
2018-08-06T04:54:37.707Z,66.57
2018-08-06T04:56:49.921Z,65.91
2018-08-06T04:59:03.515Z,65.88
2018-08-06T05:01:15.933Z,66.25
2018-08-06T05:03:28.244Z,65.27
2018-08-06T05:05:40.488Z,64.65
2018-08-06T05:07:52.772Z,64.12
2018-08-06T05:10:05.064Z,63.71
2018-08-06T05:12:17.307Z,63.81
2018-08-06T05:14:29.484Z,62.95
2018-08-06T05:16:41.706Z,62.04
2018-08-06T05:18:53.938Z,62.03
2018-08-06T05:21:06.140Z,61.66
2018-08-06T05:23:18.394Z,61.41
2018-08-06T05:25:30.639Z,61.08
2018-08-06T05:27:42.927Z,61.35
2018-08-06T05:29:55.221Z,59.52
2018-08-06T05:32:07.410Z,59.26
2018-08-06T05:34:19.621Z,59.65
2018-08-06T05:36:31.810Z,59.62
2018-08-06T05:38:44.051Z,59.00
2018-08-06T05:40:56.286Z,57.97
2018-08-06T05:43:08.532Z,57.76
2018-08-06T05:45:20.821Z,57.52
2018-08-06T05:47:33.010Z,56.50
2018-08-06T05:49:45.224Z,55.40
2018-08-06T05:51:57.466Z,55.40
2018-08-06T05:54:09.715Z,55.69
2018-08-06T05:56:21.906Z,57.83
2018-08-06T05:58:34.109Z,56.70
2018-08-06T06:00:46.434Z,57.77
2018-08-06T06:02:58.666Z,56.80
2018-08-06T06:05:10.982Z,55.31
2018-08-06T06:07:23.153Z,53.23
2018-08-06T06:09:35.341Z,53.87
2018-08-06T06:11:47.601Z,53.42
2018-08-06T06:13:59.962Z,53.35
2018-08-06T06:16:12.270Z,53.29
2018-08-06T06:18:24.527Z,51.17
2018-08-06T06:20:36.783Z,51.71
2018-08-06T06:22:49.067Z,51.88
2018-08-06T06:25:01.527Z,51.38
2018-08-06T06:27:13.696Z,50.71
2018-08-06T06:29:25.951Z,51.07
2018-08-06T06:31:38.227Z,50.39
2018-08-06T06:33:50.488Z,51.00
2018-08-06T06:36:02.737Z,53.05
2018-08-06T06:38:15.038Z,50.01
2018-08-06T06:40:27.272Z,50.12
2018-08-06T06:42:39.449Z,48.69
2018-08-06T06:44:51.701Z,49.10
2018-08-06T06:47:03.970Z,48.81
2018-08-06T06:49:16.264Z,49.27
2018-08-06T06:51:28.426Z,47.30
2018-08-06T06:53:40.645Z,46.27
2018-08-06T06:55:52.831Z,45.98
2018-08-06T06:58:05.098Z,46.15
2018-08-06T07:00:17.285Z,45.97
2018-08-06T07:02:29.642Z,46.00
2018-08-06T07:04:41.876Z,45.59
2018-08-06T07:06:54.123Z,44.90
2018-08-06T07:09:08.131Z,46.11
2018-08-06T07:11:20.330Z,45.57
2018-08-06T07:13:32.599Z,44.30
2018-08-06T07:15:44.778Z,44.01
2018-08-06T07:17:56.997Z,44.49
2018-08-06T07:20:09.381Z,44.32
2018-08-06T07:22:21.664Z,43.42
2018-08-06T07:24:33.967Z,42.62
2018-08-06T07:26:46.254Z,43.16
2018-08-06T07:28:58.459Z,42.31
2018-08-06T07:31:10.710Z,42.54
2018-08-06T07:33:22.904Z,42.93
2018-08-06T07:35:35.111Z,41.86
2018-08-06T07:37:47.336Z,41.60
2018-08-06T07:39:59.555Z,42.15
2018-08-06T07:42:11.750Z,42.04
2018-08-06T07:44:24.146Z,42.85
2018-08-06T07:46:36.899Z,40.63
2018-08-06T07:48:49.215Z,40.95
2018-08-06T07:51:01.530Z,39.38
2018-08-06T07:53:14.653Z,39.54
2018-08-06T07:55:26.837Z,39.79
2018-08-06T07:57:39.474Z,39.32
2018-08-06T07:59:51.744Z,40.74
2018-08-06T08:02:04.082Z,39.42
2018-08-06T08:04:16.265Z,40.50
2018-08-06T08:06:28.568Z,41.04
2018-08-06T08:08:40.743Z,42.42
2018-08-06T08:10:53.008Z,40.52
2018-08-06T08:13:05.226Z,41.79
2018-08-06T08:15:19.967Z,41.14
2018-08-06T08:17:32.238Z,38.79
2018-08-06T08:19:44.506Z,40.29
2018-08-06T08:21:56.742Z,38.92
2018-08-06T08:24:08.924Z,39.47
2018-08-06T08:26:21.472Z,39.39
2018-08-06T08:28:33.775Z,38.90
2018-08-06T08:30:45.986Z,39.95
2018-08-06T08:32:58.274Z,39.16
2018-08-06T08:35:11.584Z,40.48
2018-08-06T08:37:23.782Z,39.37
2018-08-06T08:39:36.023Z,40.73
2018-08-06T08:41:48.279Z,41.81
2018-08-06T08:44:00.538Z,41.45
2018-08-06T08:46:12.795Z,40.73
2018-08-06T08:48:25.070Z,39.56
2018-08-06T08:50:37.338Z,39.46
2018-08-06T08:52:49.614Z,40.30
2018-08-06T08:55:01.821Z,38.91
2018-08-06T08:57:14.024Z,39.74
2018-08-06T08:59:26.227Z,39.45
2018-08-06T09:01:38.546Z,39.16
2018-08-06T09:03:50.838Z,38.03
2018-08-06T09:06:03.086Z,37.91
2018-08-06T09:08:15.330Z,38.67
2018-08-06T09:10:27.545Z,38.58
2018-08-06T09:12:40.079Z,39.18
2018-08-06T09:14:52.319Z,39.11
2018-08-06T09:17:04.668Z,39.18
2018-08-06T09:19:16.920Z,37.57
2018-08-06T09:21:29.113Z,39.44
2018-08-06T09:23:41.289Z,38.61
2018-08-06T09:25:53.563Z,36.47
2018-08-06T09:28:05.822Z,35.37
2018-08-06T09:30:19.282Z,35.67
2018-08-06T09:32:31.446Z,36.45
2018-08-06T09:34:43.639Z,35.14
2018-08-06T09:36:55.883Z,35.57
2018-08-06T09:39:10.121Z,36.67
2018-08-06T09:41:22.374Z,37.57
2018-08-06T09:43:34.594Z,36.80
2018-08-06T09:45:46.815Z,35.34
2018-08-06T09:47:59.094Z,35.29
2018-08-06T09:50:12.253Z,37.51
2018-08-06T09:52:24.527Z,35.63
2018-08-06T09:54:36.734Z,36.13
2018-08-06T09:56:49.032Z,36.54
2018-08-06T09:59:01.270Z,36.21
2018-08-06T10:01:19.175Z,34.90
2018-08-06T10:03:31.434Z,33.95
2018-08-06T10:05:43.729Z,34.84
2018-08-06T10:07:55.923Z,34.61
2018-08-06T10:10:10.343Z,34.86
2018-08-06T10:12:22.532Z,34.67
2018-08-06T10:14:34.818Z,34.69
2018-08-06T10:16:47.074Z,34.71
2018-08-06T10:18:59.315Z,34.06
2018-08-06T10:21:11.529Z,33.67
2018-08-06T10:23:23.813Z,33.64
2018-08-06T10:25:36.012Z,31.41
2018-08-06T10:27:48.432Z,32.45
2018-08-06T10:30:00.673Z,34.41
2018-08-06T10:32:12.888Z,32.32
2018-08-06T10:34:25.131Z,33.03
2018-08-06T10:36:37.367Z,32.13
2018-08-06T10:38:49.542Z,33.58
2018-08-06T10:41:01.815Z,31.46
2018-08-06T10:43:14.081Z,33.04
2018-08-06T10:45:26.317Z,31.42
2018-08-06T10:47:38.626Z,28.87
2018-08-06T10:49:50.827Z,29.86
2018-08-06T10:52:03.144Z,29.75
2018-08-06T10:54:15.394Z,30.29
2018-08-06T10:56:27.650Z,31.97
2018-08-06T10:58:39.857Z,30.58
2018-08-06T11:00:52.080Z,31.06
2018-08-06T11:03:04.368Z,29.80
2018-08-06T11:05:17.213Z,30.87
2018-08-06T11:07:29.438Z,31.14
2018-08-06T11:09:41.649Z,29.54
2018-08-06T11:11:53.900Z,30.08
2018-08-06T11:14:06.149Z,30.91
2018-08-06T11:16:18.366Z,31.89
2018-08-06T11:18:30.631Z,29.46
2018-08-06T11:20:42.919Z,29.44
2018-08-06T11:22:55.135Z,30.97
2018-08-06T11:25:08.415Z,31.76
2018-08-06T11:27:20.631Z,30.13
2018-08-06T11:29:32.895Z,30.43
2018-08-06T11:31:45.103Z,30.60
2018-08-06T11:33:57.378Z,29.77
2018-08-06T11:36:09.662Z,30.10
2018-08-06T11:38:21.942Z,32.88
2018-08-06T11:40:34.165Z,31.93
2018-08-06T11:42:46.938Z,29.32
2018-08-06T11:44:59.130Z,30.98
2018-08-06T11:47:11.340Z,31.22
2018-08-06T11:49:23.583Z,30.38
2018-08-06T11:51:35.831Z,31.74
2018-08-06T11:53:48.066Z,29.45
2018-08-06T11:56:00.299Z,31.60
2018-08-06T11:58:12.519Z,30.42
2018-08-06T12:00:26.262Z,31.39
2018-08-06T12:02:38.458Z,30.48
2018-08-06T12:04:50.680Z,31.59
2018-08-06T12:07:02.937Z,31.08
2018-08-06T12:09:15.203Z,30.10
2018-08-06T12:11:27.454Z,28.61
2018-08-06T12:13:39.751Z,29.36
2018-08-06T12:15:52.069Z,29.62
2018-08-06T12:18:04.358Z,29.22
2018-08-06T12:20:19.742Z,29.80
2018-08-06T12:22:31.898Z,31.24
2018-08-06T12:24:44.112Z,31.05
2018-08-06T12:26:56.455Z,30.63
2018-08-06T12:29:08.959Z,31.60
2018-08-06T12:31:21.171Z,31.56
2018-08-06T12:33:33.406Z,28.73
2018-08-06T12:35:45.706Z,29.66
2018-08-06T12:37:57.900Z,32.49
2018-08-06T12:40:14.942Z,30.17
2018-08-06T12:42:27.139Z,29.94
2018-08-06T12:44:39.334Z,29.89
2018-08-06T12:46:51.609Z,30.51
2018-08-06T12:49:03.899Z,30.44
2018-08-06T12:51:16.138Z,33.00
2018-08-06T12:53:28.336Z,31.44
2018-08-06T12:55:40.543Z,29.99
2018-08-06T12:57:52.802Z,30.88
2018-08-06T13:00:08.847Z,30.50
2018-08-06T13:02:21.582Z,29.85
2018-08-06T13:04:33.834Z,31.22
2018-08-06T13:06:46.122Z,31.01
2018-08-06T13:08:58.343Z,30.00
2018-08-06T13:11:10.570Z,31.04
2018-08-06T13:13:22.803Z,30.09
2018-08-06T13:15:35.008Z,30.82
2018-08-06T13:17:47.332Z,29.92
2018-08-06T13:20:00.447Z,32.30
2018-08-06T13:22:12.670Z,31.08
2018-08-06T13:24:24.850Z,31.48
2018-08-06T13:26:37.099Z,30.44
2018-08-06T13:28:49.594Z,30.26
2018-08-06T13:31:01.884Z,27.95
2018-08-06T13:33:14.119Z,28.34
2018-08-06T13:35:26.334Z,28.72
2018-08-06T13:37:38.671Z,30.09
2018-08-06T13:39:50.879Z,30.24
2018-08-06T13:42:03.155Z,29.96
2018-08-06T13:44:15.448Z,29.94
2018-08-06T13:46:27.666Z,28.79
2018-08-06T13:48:39.901Z,29.84
2018-08-06T13:50:52.111Z,31.46
2018-08-06T13:53:04.506Z,28.85
2018-08-06T13:55:16.651Z,30.31
2018-08-06T13:57:28.895Z,28.92
2018-08-06T13:59:41.119Z,31.53
2018-08-06T14:01:53.347Z,29.06
2018-08-06T14:04:05.709Z,31.25
2018-08-06T14:06:17.926Z,30.74
2018-08-06T14:08:30.213Z,30.90
2018-08-06T14:10:42.461Z,29.35
2018-08-06T14:12:54.655Z,29.79
2018-08-06T14:15:08.507Z,29.65
2018-08-06T14:17:20.703Z,29.32
2018-08-06T14:19:32.931Z,29.40
2018-08-06T14:21:45.127Z,29.56
2018-08-06T14:23:57.338Z,28.86
2018-08-06T14:26:09.614Z,29.96
2018-08-06T14:28:21.827Z,30.73
2018-08-06T14:30:34.114Z,31.09
2018-08-06T14:32:46.320Z,29.35
2018-08-06T14:34:58.650Z,28.83
2018-08-06T14:37:10.935Z,30.63
2018-08-06T14:39:23.143Z,28.51
2018-08-06T14:41:35.549Z,29.02
2018-08-06T14:43:47.735Z,29.19
2018-08-06T14:46:00.016Z,29.41
2018-08-06T14:48:12.270Z,29.40
2018-08-06T14:50:24.503Z,28.04
2018-08-06T14:52:36.875Z,28.25
2018-08-06T14:54:49.090Z,30.05
2018-08-06T14:57:01.368Z,30.51
2018-08-06T14:59:13.593Z,29.60
2018-08-06T15:01:25.899Z,28.95
2018-08-06T15:03:38.226Z,28.56
2018-08-06T15:05:50.482Z,27.90
2018-08-06T15:08:02.734Z,28.72
2018-08-06T15:10:15.385Z,28.10
2018-08-06T15:12:27.680Z,28.90
2018-08-06T15:14:39.891Z,28.63
2018-08-06T15:16:52.181Z,29.46
2018-08-06T15:19:04.918Z,29.59
2018-08-06T15:21:17.177Z,29.45
2018-08-06T15:23:29.435Z,29.23
2018-08-06T15:25:41.683Z,29.42
2018-08-06T15:27:53.911Z,28.99
2018-08-06T15:30:06.703Z,28.87
2018-08-06T15:32:18.971Z,29.83
2018-08-06T15:34:31.191Z,30.05
2018-08-06T15:36:43.475Z,29.49
2018-08-06T15:38:55.737Z,31.27
2018-08-06T15:41:08.455Z,28.28
2018-08-06T15:43:20.682Z,28.23
2018-08-06T15:45:32.968Z,27.98
2018-08-06T15:47:45.756Z,27.26
2018-08-06T15:49:57.954Z,27.91
2018-08-06T15:52:10.151Z,28.48
2018-08-06T15:54:22.416Z,28.56
2018-08-06T15:56:34.678Z,28.99
2018-08-06T15:58:46.958Z,29.10
2018-08-06T16:00:59.217Z,30.26
2018-08-06T16:03:11.472Z,30.20
2018-08-06T16:05:23.730Z,29.39
2018-08-06T16:07:35.962Z,28.96
2018-08-06T16:09:48.250Z,28.68
2018-08-06T16:12:00.506Z,27.93
2018-08-06T16:14:12.742Z,27.56
2018-08-06T16:16:24.954Z,27.82
2018-08-06T16:18:37.187Z,28.22
2018-08-06T16:20:49.414Z,27.19
2018-08-06T16:23:01.716Z,28.20
2018-08-06T16:25:14.213Z,28.15
2018-08-06T16:27:26.495Z,28.08
2018-08-06T16:29:38.753Z,27.37
2018-08-06T16:31:51.043Z,27.77
2018-08-06T16:34:03.564Z,27.57
2018-08-06T16:36:15.787Z,28.41
2018-08-06T16:38:28.085Z,27.58
2018-08-06T16:40:40.307Z,26.99
2018-08-06T16:42:52.693Z,28.67
2018-08-06T16:45:05.668Z,28.95
2018-08-06T16:47:17.953Z,28.46
2018-08-06T16:49:30.190Z,31.74
2018-08-06T16:51:42.475Z,30.70
2018-08-06T16:53:54.725Z,31.22
2018-08-06T16:56:07.034Z,29.74
2018-08-06T16:58:19.270Z,28.84
2018-08-06T17:00:31.502Z,29.48
2018-08-06T17:02:44.262Z,29.31
2018-08-06T17:04:56.581Z,29.05
2018-08-06T17:07:08.789Z,29.00
2018-08-06T17:09:20.993Z,28.97
2018-08-06T17:11:33.255Z,29.07
2018-08-06T17:13:45.516Z,28.99
2018-08-06T17:15:57.844Z,29.54
2018-08-06T17:18:10.059Z,29.74
2018-08-06T17:20:22.979Z,29.75
2018-08-06T17:22:35.207Z,29.12
2018-08-06T17:24:47.487Z,28.30
2018-08-06T17:26:59.722Z,28.24
2018-08-06T17:29:11.984Z,30.38
2018-08-06T17:31:24.234Z,33.68
2018-08-06T17:33:36.492Z,34.65
2018-08-06T17:35:48.735Z,36.49
2018-08-06T17:38:00.986Z,36.75
2018-08-06T17:40:16.159Z,36.21
2018-08-06T17:42:28.408Z,37.49
2018-08-06T17:44:40.686Z,37.21
2018-08-06T17:46:52.930Z,37.67
2018-08-06T17:49:05.558Z,37.02
2018-08-06T17:51:17.735Z,37.30
2018-08-06T17:53:29.974Z,37.37
2018-08-06T17:55:42.168Z,37.99
2018-08-06T17:57:54.510Z,38.02
2018-08-06T18:00:07.785Z,39.04
2018-08-06T18:02:20.067Z,39.14
2018-08-06T18:04:32.267Z,39.40
2018-08-06T18:06:44.545Z,39.36
2018-08-06T18:08:56.834Z,39.10
2018-08-06T18:11:09.059Z,39.44
2018-08-06T18:13:21.342Z,39.33
2018-08-06T18:15:33.599Z,39.58
2018-08-06T18:17:45.862Z,39.87
2018-08-06T18:19:58.162Z,39.93
2018-08-06T18:22:10.382Z,40.67
2018-08-06T18:24:22.619Z,40.84
2018-08-06T18:26:34.847Z,40.74
2018-08-06T18:28:47.075Z,40.51
2018-08-06T18:30:59.363Z,40.64
2018-08-06T18:33:11.632Z,40.60
2018-08-06T18:35:23.930Z,39.84
2018-08-06T18:37:36.161Z,40.53
2018-08-06T18:39:48.363Z,41.26
2018-08-06T18:42:00.623Z,40.40
2018-08-06T18:44:12.896Z,41.10
2018-08-06T18:46:25.100Z,41.59
2018-08-06T18:48:37.329Z,41.22
2018-08-06T18:50:49.594Z,40.95
2018-08-06T18:53:01.818Z,41.31
2018-08-06T18:55:14.780Z,41.39
2018-08-06T18:57:27.023Z,41.66
2018-08-06T18:59:39.278Z,42.21
2018-08-06T19:01:51.615Z,42.47
2018-08-06T19:04:03.970Z,41.53
2018-08-06T19:06:16.233Z,42.56
2018-08-06T19:08:28.490Z,43.83
2018-08-06T19:10:40.754Z,43.76
2018-08-06T19:12:58.659Z,42.88
2018-08-06T19:15:11.367Z,42.06
2018-08-06T19:17:23.612Z,41.91
2018-08-06T19:19:35.933Z,40.16
2018-08-06T19:21:48.142Z,39.64
2018-08-06T19:24:06.047Z,39.09
2018-08-06T19:26:18.255Z,37.60
2018-08-06T19:28:30.519Z,37.66
2018-08-06T19:31:47.105Z,37.57
2018-08-06T19:33:59.332Z,36.85
2018-08-06T19:36:11.613Z,37.16
2018-08-06T19:38:23.889Z,36.90
2018-08-06T19:40:36.193Z,36.76
2018-08-06T19:42:54.063Z,36.60
2018-08-06T19:45:06.393Z,37.22
2018-08-06T19:47:18.652Z,36.80
2018-08-06T19:49:36.738Z,37.21
2018-08-06T19:51:49.086Z,37.53
2018-08-06T19:54:01.357Z,37.10
2018-08-06T19:56:15.547Z,36.54
2018-08-06T19:58:27.850Z,36.63
2018-08-06T20:00:40.090Z,36.20
2018-08-06T20:02:52.383Z,36.15
2018-08-06T20:05:05.266Z,36.36
2018-08-06T20:07:17.526Z,36.52
2018-08-06T20:09:29.795Z,36.33
2018-08-06T20:11:42.171Z,36.52
2018-08-06T20:13:54.499Z,36.34
2018-08-06T20:16:06.728Z,36.13
2018-08-06T20:18:21.118Z,35.94
2018-08-06T20:20:33.391Z,37.06
2018-08-06T20:22:45.971Z,37.08
2018-08-06T20:24:58.246Z,38.09
2018-08-06T20:27:10.723Z,38.42
2018-08-06T20:29:23.016Z,38.44
2018-08-06T20:31:35.245Z,38.92
2018-08-06T20:33:47.515Z,38.44
2018-08-06T20:35:59.723Z,38.29
2018-08-06T20:38:11.953Z,38.94
2018-08-06T20:40:24.205Z,38.58
2018-08-06T20:42:37.876Z,38.42
2018-08-06T20:44:50.146Z,39.04
2018-08-06T20:47:02.408Z,39.18
2018-08-06T20:49:14.594Z,39.61
2018-08-06T20:51:26.887Z,39.73
2018-08-06T20:53:39.178Z,39.89
2018-08-06T20:55:51.472Z,40.04
2018-08-06T20:58:03.732Z,39.86
2018-08-06T21:00:18.922Z,40.17
2018-08-06T21:02:31.239Z,40.23
2018-08-06T21:04:44.146Z,40.44
2018-08-06T21:06:56.392Z,41.24
2018-08-06T21:09:09.519Z,40.89
2018-08-06T21:11:21.777Z,41.19
2018-08-06T21:13:34.059Z,41.56
2018-08-06T21:15:46.327Z,41.75
2018-08-06T21:17:58.626Z,41.90
2018-08-06T21:20:14.957Z,42.43
2018-08-06T21:22:27.274Z,42.45
2018-08-06T21:24:39.535Z,42.94
2018-08-06T21:26:51.755Z,42.82
2018-08-06T21:29:04.251Z,43.21
2018-08-06T21:31:16.676Z,42.98
2018-08-06T21:33:28.956Z,43.27
2018-08-06T21:35:41.194Z,43.31
2018-08-06T21:37:54.199Z,42.86
2018-08-06T21:40:06.507Z,42.33
2018-08-06T21:42:18.787Z,42.37
2018-08-06T21:44:31.082Z,42.30
2018-08-06T21:46:43.307Z,42.73
2018-08-06T21:48:55.586Z,42.38
2018-08-06T21:51:08.099Z,42.54
2018-08-06T21:53:20.384Z,42.64
2018-08-06T21:55:32.639Z,42.85
2018-08-06T21:57:44.905Z,42.46
2018-08-06T21:59:57.227Z,42.85
2018-08-06T22:02:09.498Z,42.43
2018-08-06T22:04:21.760Z,42.83
2018-08-06T22:06:33.967Z,42.74
2018-08-06T22:08:46.164Z,42.62
2018-08-06T22:10:58.470Z,43.58
2018-08-06T22:13:10.958Z,43.72
2018-08-06T22:15:23.268Z,42.97
2018-08-06T22:17:35.487Z,42.96
2018-08-06T22:19:47.730Z,43.05
2018-08-06T22:21:59.998Z,43.10
2018-08-06T22:24:12.258Z,42.68
2018-08-06T22:26:24.554Z,43.08
2018-08-06T22:28:36.826Z,43.61
2018-08-06T22:30:49.079Z,43.18
2018-08-06T22:33:01.328Z,43.96
2018-08-06T22:35:13.583Z,44.10
2018-08-06T22:37:25.767Z,44.32
2018-08-06T22:39:37.943Z,44.58
2018-08-06T22:41:50.160Z,44.98
2018-08-06T22:44:02.432Z,44.47
2018-08-06T22:46:14.711Z,44.93
2018-08-06T22:48:26.916Z,45.23
2018-08-06T22:50:39.168Z,44.94
2018-08-06T22:52:51.406Z,44.74
2018-08-06T22:55:04.102Z,44.98
2018-08-06T22:57:16.394Z,45.54
2018-08-06T22:59:28.607Z,45.84
2018-08-06T23:01:40.838Z,46.30
2018-08-06T23:03:53.280Z,46.48
2018-08-06T23:06:06.426Z,45.67
2018-08-06T23:08:18.690Z,45.97
2018-08-06T23:10:30.938Z,46.50
2018-08-06T23:12:43.374Z,46.17
2018-08-06T23:14:55.594Z,46.48
2018-08-06T23:17:07.818Z,46.22
2018-08-06T23:19:20.087Z,46.79
2018-08-06T23:21:32.322Z,46.36
2018-08-06T23:23:44.639Z,46.53
2018-08-06T23:25:56.857Z,47.40
2018-08-06T23:28:09.099Z,48.00
2018-08-06T23:30:21.349Z,47.43
2018-08-06T23:32:33.563Z,47.16
2018-08-06T23:34:45.859Z,47.20
2018-08-06T23:36:58.058Z,48.11
2018-08-06T23:39:10.376Z,47.46
2018-08-06T23:41:22.622Z,47.83
2018-08-06T23:43:34.827Z,47.89
2018-08-06T23:45:47.070Z,48.12
2018-08-06T23:47:59.258Z,48.71
2018-08-06T23:50:13.006Z,47.90
2018-08-06T23:52:25.314Z,48.06
2018-08-06T23:54:37.542Z,48.08
2018-08-06T23:56:49.829Z,48.32
2018-08-06T23:59:02.194Z,48.74
